createdAt,value
2019-04-16T00:00:22.514Z,17
2019-04-16T00:05:13.757Z,17
2019-04-16T00:10:05.797Z,16
2019-04-16T00:14:57.261Z,16
2019-04-16T00:19:48.547Z,16
2019-04-16T00:24:40.476Z,17
2019-04-16T00:29:33.998Z,17
2019-04-16T00:34:24.401Z,17
2019-04-16T00:39:15.818Z,17
2019-04-16T00:44:07.331Z,17
2019-04-16T00:48:59.686Z,17
2019-04-16T00:53:50.925Z,17
2019-04-16T00:58:42.480Z,17
2019-04-16T01:03:34.008Z,17
2019-04-16T01:08:25.348Z,17
2019-04-16T01:13:16.646Z,17
2019-04-16T01:18:09.473Z,17
2019-04-16T01:23:00.553Z,17
2019-04-16T01:27:51.512Z,18
2019-04-16T01:32:43.695Z,17
2019-04-16T01:37:34.675Z,18
2019-04-16T01:42:26.257Z,17
2019-04-16T01:47:17.220Z,17
2019-04-16T01:52:08.920Z,17
2019-04-16T01:57:01.354Z,17
2019-04-16T02:01:52.405Z,17
2019-04-16T02:06:43.686Z,17
2019-04-16T02:11:35.301Z,18
2019-04-16T02:16:27.611Z,17
2019-04-16T02:21:19.609Z,17
2019-04-16T02:26:11.477Z,17
2019-04-16T02:31:03.047Z,18
2019-04-16T02:35:54.122Z,17
2019-04-16T02:40:53.569Z,17
2019-04-16T02:45:42.103Z,17
2019-04-16T02:50:33.685Z,17
2019-04-16T02:55:25.888Z,17
2019-04-16T03:00:18.750Z,17
2019-04-16T03:05:09.508Z,17
2019-04-16T03:10:03.022Z,17
2019-04-16T03:14:53.876Z,17
2019-04-16T03:19:52.262Z,17
2019-04-16T03:24:41.661Z,17
2019-04-16T03:29:33.097Z,17
2019-04-16T03:34:24.684Z,17
2019-04-16T03:39:16.210Z,17
2019-04-16T03:44:07.999Z,17
2019-04-16T03:48:59.590Z,17
2019-04-16T03:53:50.862Z,17
2019-04-16T03:58:42.465Z,17
2019-04-16T04:03:33.968Z,17
2019-04-16T04:08:25.561Z,17
2019-04-16T04:13:19.509Z,17
2019-04-16T04:18:13.467Z,17
2019-04-16T04:23:03.384Z,17
2019-04-16T04:27:55.169Z,17
2019-04-16T04:32:48.161Z,17
2019-04-16T04:37:39.219Z,17
2019-04-16T04:42:30.809Z,17
2019-04-16T04:47:21.906Z,17
2019-04-16T04:52:15.485Z,17
2019-04-16T04:57:06.423Z,18
2019-04-16T05:01:57.143Z,18
2019-04-16T05:06:48.747Z,18
2019-04-16T05:11:40.233Z,18
2019-04-16T05:16:35.308Z,18
2019-04-16T05:21:25.712Z,18
2019-04-16T05:26:17.204Z,18
2019-04-16T05:31:08.703Z,18
2019-04-16T05:36:00.534Z,18
2019-04-16T05:40:52.180Z,18
2019-04-16T05:45:43.555Z,18
2019-04-16T05:50:35.699Z,18
2019-04-16T05:55:27.383Z,18
2019-04-16T06:00:19.826Z,18
2019-04-16T06:05:12.961Z,19
2019-04-16T06:10:07.276Z,19
2019-04-16T06:14:57.838Z,19
2019-04-16T06:19:49.574Z,19
2019-04-16T06:24:41.531Z,19
2019-04-16T06:29:33.889Z,19
2019-04-16T06:34:26.025Z,19
2019-04-16T06:39:17.676Z,20
2019-04-16T06:44:09.660Z,20
2019-04-16T06:49:01.188Z,20
2019-04-16T06:53:57.821Z,20
2019-04-16T06:58:58.181Z,20
2019-04-16T07:03:45.362Z,20
2019-04-16T07:08:42.191Z,20
2019-04-16T07:13:31.488Z,20
2019-04-16T07:18:23.205Z,20
2019-04-16T07:23:15.506Z,20
2019-04-16T07:28:07.443Z,20
2019-04-16T07:33:01.418Z,20
2019-04-16T07:37:51.626Z,21
2019-04-16T07:43:48.065Z,20
2019-04-16T07:48:33.420Z,20
2019-04-16T07:53:24.038Z,21
2019-04-16T07:58:15.309Z,21
2019-04-16T08:03:07.693Z,21
2019-04-16T08:07:59.000Z,21
2019-04-16T08:12:50.600Z,21
2019-04-16T08:17:42.093Z,20
2019-04-16T08:22:33.134Z,20
2019-04-16T08:27:24.721Z,20
2019-04-16T08:32:17.306Z,20
2019-04-16T08:37:08.951Z,20
2019-04-16T08:42:00.371Z,20
2019-04-16T08:46:52.144Z,20
2019-04-16T08:51:43.770Z,20
2019-04-16T08:56:35.402Z,20
2019-04-16T09:01:26.398Z,20
2019-04-16T09:06:17.998Z,20
2019-04-16T09:11:24.168Z,20
2019-04-16T09:16:11.830Z,20
2019-04-16T09:21:11.925Z,20
2019-04-16T09:26:23.495Z,20
2019-04-16T09:31:10.733Z,20
2019-04-16T09:36:03.708Z,21
2019-04-16T09:40:54.748Z,20
2019-04-16T09:45:46.015Z,20
2019-04-16T09:50:48.111Z,20
2019-04-16T09:55:37.444Z,21
2019-04-16T10:00:28.423Z,21
2019-04-16T10:05:20.283Z,21
2019-04-16T10:10:11.963Z,21
2019-04-16T10:15:02.178Z,21
2019-04-16T10:19:54.733Z,21
2019-04-16T10:24:45.625Z,21
2019-04-16T10:29:36.973Z,21
2019-04-16T10:34:28.589Z,21
2019-04-16T10:39:20.370Z,21
2019-04-16T10:44:11.891Z,21
2019-04-16T10:49:03.429Z,21
2019-04-16T10:53:55.103Z,21
2019-04-16T10:58:47.797Z,21
2019-04-16T11:03:39.285Z,21
2019-04-16T11:08:31.305Z,21
2019-04-16T11:13:23.417Z,22
2019-04-16T11:18:15.188Z,22
2019-04-16T11:23:08.564Z,22
2019-04-16T11:27:59.740Z,22
2019-04-16T11:32:53.744Z,22
2019-04-16T11:37:45.106Z,22
2019-04-16T11:42:36.952Z,22
2019-04-16T11:47:35.019Z,22
2019-04-16T11:52:23.792Z,22
2019-04-16T11:57:15.966Z,22
2019-04-16T12:02:08.245Z,22
2019-04-16T12:06:59.692Z,22
2019-04-16T12:11:51.351Z,22
2019-04-16T12:16:42.832Z,22
2019-04-16T12:21:34.702Z,22
2019-04-16T12:26:27.031Z,22
2019-04-16T12:31:18.330Z,22
2019-04-16T12:36:15.146Z,22
2019-04-16T12:41:05.077Z,22
2019-04-16T12:45:56.205Z,22
2019-04-16T12:50:48.182Z,22
2019-04-16T12:55:40.160Z,22
2019-04-16T13:00:32.710Z,22
2019-04-16T13:05:24.050Z,22
2019-04-16T13:10:15.686Z,22
2019-04-16T13:15:07.741Z,23
2019-04-16T13:20:00.220Z,23
2019-04-16T13:24:51.278Z,22
2019-04-16T13:29:44.626Z,22
2019-04-16T13:34:37.197Z,23
2019-04-16T13:39:28.881Z,23
2019-04-16T13:44:19.722Z,23
2019-04-16T13:49:11.415Z,22
2019-04-16T13:54:02.502Z,22
2019-04-16T13:58:58.998Z,22
2019-04-16T14:03:49.650Z,23
2019-04-16T14:05:28.062Z,23
2019-04-16T14:10:16.951Z,23
2019-04-16T14:13:31.803Z,23
2019-04-16T14:18:22.302Z,23
2019-04-16T14:23:11.681Z,23
2019-04-16T14:28:04.445Z,23
2019-04-16T14:29:10.251Z,23
2019-04-16T15:13:43.342Z,22
2019-04-16T15:16:20.978Z,25
2019-04-16T15:16:30.474Z,25
2019-04-16T15:18:53.439Z,25
2019-04-16T15:19:43.631Z,24
2019-04-16T16:15:41.488Z,21
2019-04-16T16:20:30.309Z,21
2019-04-16T18:32:08.120Z,18
2019-04-16T18:36:56.765Z,18
2019-04-16T18:41:48.087Z,18
2019-04-16T18:46:38.583Z,18
2019-04-16T18:51:34.550Z,18
2019-04-16T18:56:23.201Z,18
2019-04-16T19:01:13.923Z,17
2019-04-16T19:06:05.214Z,17
2019-04-16T19:10:55.982Z,17
2019-04-16T19:13:01.973Z,27
